createdAt,value
2019-01-24T00:00:53.455Z,41.10
2019-01-24T00:03:25.427Z,41.00
2019-01-24T00:05:57.880Z,41.10
2019-01-24T00:08:29.754Z,41.00
2019-01-24T00:11:01.849Z,40.70
2019-01-24T00:13:33.774Z,40.90
2019-01-24T00:16:06.315Z,40.50
2019-01-24T00:18:38.440Z,40.80
2019-01-24T00:21:10.037Z,41.00
2019-01-24T00:23:41.755Z,40.70
2019-01-24T00:26:12.475Z,41.00
2019-01-24T00:28:44.803Z,41.20
2019-01-24T00:31:15.690Z,41.10
2019-01-24T00:33:46.659Z,40.80
2019-01-24T00:36:19.341Z,40.90
2019-01-24T00:38:51.786Z,41.10
2019-01-24T00:41:23.897Z,41.20
2019-01-24T00:43:55.743Z,40.90
2019-01-24T00:46:28.319Z,41.30
2019-01-24T00:49:00.490Z,40.90
2019-01-24T00:51:32.786Z,40.80
2019-01-24T00:54:04.847Z,40.90
2019-01-24T00:56:36.833Z,41.10
2019-01-24T00:59:08.831Z,40.60
2019-01-24T01:01:40.470Z,40.10
2019-01-24T01:04:12.266Z,41.50
2019-01-24T01:06:43.870Z,40.70
2019-01-24T01:09:15.761Z,40.90
2019-01-24T01:11:46.747Z,41.20
2019-01-24T01:14:18.438Z,41.30
2019-01-24T01:16:50.057Z,41.30
2019-01-24T01:19:21.778Z,40.40
2019-01-24T01:21:53.074Z,41.40
2019-01-24T01:24:24.785Z,40.80
2019-01-24T01:26:55.487Z,40.90
2019-01-24T01:29:27.309Z,41.50
2019-01-24T01:31:59.418Z,41.40
2019-01-24T01:34:36.152Z,41.50
2019-01-24T01:37:04.794Z,42.50
2019-01-24T01:39:36.357Z,42.20
2019-01-24T01:42:08.313Z,41.70
2019-01-24T01:44:39.862Z,41.60
2019-01-24T01:47:11.649Z,41.70
2019-01-24T01:49:43.375Z,42.00
2019-01-24T01:52:15.027Z,41.50
2019-01-24T01:54:46.757Z,41.90
2019-01-24T01:57:17.535Z,42.30
2019-01-24T01:59:49.300Z,42.10
2019-01-24T02:02:21.308Z,41.90
2019-01-24T02:04:52.798Z,42.60
2019-01-24T02:07:24.396Z,42.40
2019-01-24T02:09:56.069Z,42.00
2019-01-24T02:12:28.326Z,42.20
2019-01-24T02:14:59.920Z,42.40
2019-01-24T02:17:31.414Z,41.80
2019-01-24T02:20:03.061Z,42.40
2019-01-24T02:24:37.314Z,42.20
2019-01-24T02:27:08.888Z,41.70
2019-01-24T02:29:40.425Z,41.80
2019-01-24T02:32:12.352Z,41.80
2019-01-24T02:34:49.659Z,41.60
2019-01-24T02:37:17.649Z,41.50
2019-01-24T02:39:48.462Z,40.70
2019-01-24T02:42:20.619Z,40.80
2019-01-24T02:44:52.507Z,40.90
2019-01-24T02:47:24.314Z,40.80
2019-01-24T02:49:56.489Z,41.10
2019-01-24T02:52:28.317Z,40.90
2019-01-24T02:54:59.874Z,41.10
2019-01-24T02:57:31.411Z,41.10
2019-01-24T03:00:03.075Z,41.60
2019-01-24T03:02:34.766Z,41.00
2019-01-24T03:05:06.421Z,41.50
2019-01-24T03:07:38.497Z,41.40
2019-01-24T03:10:12.785Z,41.00
2019-01-24T03:12:43.488Z,41.60
2019-01-24T03:15:18.322Z,42.00
2019-01-24T03:17:50.030Z,41.50
2019-01-24T03:20:21.790Z,41.90
2019-01-24T03:22:53.045Z,41.90
2019-01-24T03:25:25.120Z,41.40
2019-01-24T03:27:56.769Z,41.60
2019-01-24T03:30:27.793Z,41.70
2019-01-24T03:32:59.647Z,41.30
2019-01-24T03:35:31.354Z,41.20
2019-01-24T03:38:02.884Z,40.60
2019-01-24T03:40:34.771Z,41.60
2019-01-24T03:43:05.519Z,41.80
2019-01-24T03:45:37.587Z,42.10
2019-01-24T03:48:09.308Z,42.30
2019-01-24T03:50:40.854Z,42.50
2019-01-24T03:53:12.641Z,42.40
2019-01-24T03:55:44.348Z,42.10
2019-01-24T03:58:19.795Z,41.60
2019-01-24T04:00:51.731Z,41.60
2019-01-24T04:03:23.394Z,41.80
2019-01-24T04:05:55.337Z,41.60
2019-01-24T04:08:27.074Z,41.60
2019-01-24T04:10:58.794Z,41.80
2019-01-24T04:13:29.490Z,42.60
2019-01-24T04:16:01.318Z,41.90
2019-01-24T04:21:14.269Z,41.80
2019-01-24T04:23:45.832Z,42.10
2019-01-24T04:26:17.620Z,41.10
2019-01-24T04:28:50.318Z,41.50
2019-01-24T04:31:21.867Z,42.50
2019-01-24T04:33:53.698Z,42.40
2019-01-24T04:36:25.373Z,41.50
2019-01-24T04:38:57.084Z,40.60
2019-01-24T04:41:28.767Z,42.10
2019-01-24T04:43:59.506Z,42.00
2019-01-24T04:46:31.594Z,41.20
2019-01-24T04:49:03.324Z,41.30
2019-01-24T04:51:34.896Z,41.90
2019-01-24T04:54:06.421Z,41.40
2019-01-24T04:56:38.070Z,41.60
2019-01-24T17:27:36.383Z,39.10
2019-01-24T17:30:11.954Z,39.80
2019-01-24T17:32:43.888Z,40.20
2019-01-24T17:35:15.486Z,39.20
2019-01-24T17:37:47.022Z,39.80
2019-01-24T17:40:28.906Z,39.50
2019-01-24T17:43:00.770Z,40.00
2019-01-24T17:45:32.124Z,39.40
2019-01-24T17:48:04.011Z,40.60
2019-01-24T17:50:35.778Z,40.20
2019-01-24T17:53:07.791Z,34.80
2019-01-24T17:55:42.119Z,32.90
2019-01-24T17:58:14.758Z,32.80
2019-01-24T18:00:49.925Z,32.50
2019-01-24T18:03:21.720Z,32.50
2019-01-24T18:05:52.488Z,32.20
2019-01-24T18:08:30.983Z,31.90
2019-01-24T18:10:57.756Z,32.10
2019-01-24T18:13:28.487Z,31.90
2019-01-24T18:16:00.357Z,31.70
2019-01-24T18:18:32.911Z,32.10
2019-01-24T18:21:04.786Z,32.10
2019-01-24T18:23:36.354Z,31.80
2019-01-24T18:26:08.310Z,32.10
2019-01-24T18:28:39.965Z,32.60
2019-01-24T18:31:11.807Z,33.50
2019-01-24T18:33:43.643Z,32.40
2019-01-24T18:36:15.376Z,32.80
2019-01-24T18:38:47.435Z,33.50
2019-01-24T18:41:19.033Z,32.80
2019-01-24T18:43:50.802Z,35.00
2019-01-24T18:46:22.421Z,34.10
2019-01-24T18:48:54.429Z,33.80
2019-01-24T18:51:26.439Z,34.80
2019-01-24T18:53:58.467Z,36.30
2019-01-24T18:56:30.396Z,39.10
2019-01-24T18:59:02.896Z,39.70
2019-01-24T19:01:34.864Z,38.80
2019-01-24T19:04:07.304Z,38.80
2019-01-24T19:06:40.404Z,39.60
2019-01-24T19:09:12.625Z,39.30
2019-01-24T19:11:44.606Z,38.80
2019-01-24T19:14:16.412Z,37.90
2019-01-24T19:16:48.297Z,36.70
2019-01-24T19:19:20.703Z,32.90
2019-01-24T19:21:51.481Z,33.40
2019-01-24T19:24:23.802Z,33.10
2019-01-24T19:26:55.617Z,34.30
2019-01-24T19:29:27.727Z,33.50
2019-01-24T19:31:59.377Z,34.10
2019-01-24T19:34:31.060Z,33.60
2019-01-24T19:37:02.883Z,34.20
2019-01-24T19:39:34.905Z,34.40
2019-01-24T19:42:06.782Z,38.70
2019-01-24T19:44:38.583Z,39.80
2019-01-24T19:47:10.456Z,39.60
2019-01-24T19:49:42.775Z,39.50
2019-01-24T19:52:13.717Z,38.30
2019-01-24T19:54:45.829Z,38.40
2019-01-24T19:57:17.770Z,38.10
2019-01-24T19:59:48.450Z,34.70
2019-01-24T20:02:20.300Z,33.70
2019-01-24T20:04:52.841Z,34.70
2019-01-24T20:07:24.621Z,34.20
2019-01-24T20:09:56.356Z,34.00
2019-01-24T20:12:28.305Z,33.10
2019-01-24T20:14:59.891Z,34.30
2019-01-24T20:17:31.782Z,38.10
2019-01-24T20:20:03.814Z,39.00
2019-01-24T20:22:36.014Z,39.20
2019-01-24T20:25:11.302Z,38.90
2019-01-24T20:27:43.315Z,39.00
2019-01-24T20:30:33.305Z,38.80
2019-01-24T20:33:05.306Z,39.20
2019-01-24T20:35:57.776Z,39.20
2019-01-24T20:38:28.638Z,39.90
2019-01-24T20:41:00.324Z,40.20
2019-01-24T20:43:35.438Z,39.30
2019-01-24T20:46:05.745Z,39.60
2019-01-24T20:48:36.472Z,39.50
2019-01-24T20:51:08.736Z,39.30
2019-01-24T20:53:39.492Z,38.80
2019-01-24T20:56:11.304Z,38.80
2019-01-24T20:58:43.002Z,39.70
2019-01-24T21:01:15.306Z,40.10
2019-01-24T21:03:55.442Z,40.00
2019-01-24T21:06:34.392Z,40.50
2019-01-24T21:09:18.331Z,40.20
2019-01-24T21:11:50.937Z,40.00
2019-01-24T21:14:25.289Z,40.90
2019-01-24T21:17:02.330Z,40.60
2019-01-24T21:19:34.370Z,41.00
2019-01-24T21:22:07.298Z,41.00
2019-01-24T21:24:39.898Z,40.70
2019-01-24T21:27:12.522Z,41.30
2019-01-24T21:29:44.378Z,40.90
2019-01-24T21:32:16.299Z,40.90
2019-01-24T21:34:47.853Z,41.60
2019-01-24T21:37:19.695Z,41.30
2019-01-24T21:39:52.651Z,41.30
2019-01-24T21:42:24.406Z,40.80
2019-01-24T21:44:56.057Z,40.80
2019-01-24T21:47:28.058Z,41.60
2019-01-24T21:49:59.778Z,41.40
2019-01-24T21:52:30.493Z,41.20
2019-01-24T21:55:02.255Z,41.00
2019-01-24T21:57:34.048Z,41.00
2019-01-24T22:00:06.650Z,41.50
2019-01-24T22:02:38.402Z,41.70
2019-01-24T22:05:11.060Z,41.00
2019-01-24T22:07:43.398Z,41.40
2019-01-24T22:10:19.960Z,41.80
2019-01-24T22:12:52.570Z,41.40
2019-01-24T22:15:29.146Z,41.50
2019-01-24T22:18:01.891Z,41.00
2019-01-24T22:20:33.903Z,41.60
2019-01-24T22:23:06.845Z,41.80
2019-01-24T22:25:39.504Z,41.70
2019-01-24T22:28:11.422Z,41.80
2019-01-24T22:30:52.890Z,42.00
2019-01-24T22:33:24.894Z,41.60
2019-01-24T22:35:56.766Z,41.40
2019-01-24T22:38:27.679Z,42.60
2019-01-24T22:40:59.561Z,42.10
2019-01-24T22:43:31.725Z,41.60
2019-01-24T22:46:02.460Z,42.70
2019-01-24T22:48:34.479Z,41.80
2019-01-24T22:51:06.305Z,42.40
2019-01-24T22:53:38.050Z,42.40
2019-01-24T22:56:09.722Z,42.10
2019-01-24T22:58:40.499Z,41.80
2019-01-24T23:01:39.729Z,42.10
2019-01-24T23:04:17.255Z,42.10
2019-01-24T23:06:49.481Z,42.30
2019-01-24T23:09:21.313Z,42.70
2019-01-24T23:11:53.593Z,42.40
2019-01-24T23:14:34.727Z,42.50
2019-01-24T23:17:10.038Z,41.90
2019-01-24T23:19:41.815Z,42.50
2019-01-24T23:22:16.754Z,42.80
2019-01-24T23:24:48.467Z,42.70
2019-01-24T23:27:20.323Z,42.50
2019-01-24T23:29:51.857Z,42.40
2019-01-24T23:32:23.438Z,42.40
2019-01-24T23:34:55.675Z,42.60
2019-01-24T23:37:28.316Z,42.60
2019-01-24T23:39:59.927Z,42.60
2019-01-24T23:42:31.828Z,42.20
2019-01-24T23:45:03.621Z,42.60
2019-01-24T23:47:35.772Z,42.20
2019-01-24T23:50:07.493Z,42.30
2019-01-24T23:52:39.275Z,43.20
2019-01-24T23:55:11.056Z,42.60
2019-01-24T23:57:42.847Z,42.50
